• Join FlightAware (Why Join?)
  • Login
  • US Flag 
10:19PM EDT


 

Airport Tracker/Info


-or-


 

Live Flight TrackerFlight Track Log ✈ N5920V ✈ 18-Aug-2013 ✈ KXFL - KAPF

Flight Track Log - Related Links

Times and Time Zones

All times are in EDT time to prevent confusion due to time zone crossing. See the N5920V flight status page for this flight to view local times or setup timezone preferences in your user account.

Time Position Orientation Groundspeed Altitude Reporting Facility
EDT Latitude Longitude Course Direction KTS MPH feet Rate Location/Type
07:33PM 29.3789 -81.3911 189° South 140 161 8,300  Level Jacksonville Center
07:34PM 29.3472 -81.3656 145° Southeast 139 160 8,300  Level Jacksonville Center
07:35PM 29.3175 -81.3397 143° Southeast 136 157 8,300  Level Jacksonville Center
07:36PM 29.2881 -81.3139 143° Southeast 134 154 8,300  Level Jacksonville Center
07:37PM 29.2564 -81.2906 147° Southeast 133 153 8,300  Level Jacksonville Center
07:39PM 29.0441 -81.2810 189° South  Level Estimated
07:39PM 29.2000 -81.2500 148° Southeast 133 153 8,300  Level Orlando TRACON
07:40PM 29.1667 -81.2167 139° Southeast 133 153 8,200 -60 Descending Orlando TRACON
07:41PM 29.1333 -81.2000 156° South 136 157 8,200  Level Orlando TRACON
07:42PM 29.1167 -81.1667 120° Southeast 130 150 8,300  Climbing Orlando TRACON
07:43PM 29.0833 -81.1500 156° South 132 152 8,300  Level Orlando TRACON
07:44PM 29.0667 -81.1167 120° Southeast 140 161 8,300  Level Orlando TRACON
07:45PM 29.0500 -81.0667 111° Southeast 141 162 8,300  Level Orlando TRACON
07:46PM 29.0500 -81.0167 90° East 137 158 8,300 -60 Level Orlando TRACON
07:47PM 29.0333 -80.9833 120° Southeast 138 159 8,200  Descending Orlando TRACON
07:48PM 29.0167 -80.9333 111° Southeast 138 159 8,300  Climbing Orlando TRACON
07:49PM 28.9833 -80.9167 156° South 129 148 8,300  Level Orlando TRACON
07:50PM 28.9500 -80.9167 180° South 134 154 8,400  Climbing Orlando TRACON
07:51PM 28.9167 -80.9000 156° South 136 157 8,400 -60 Level Orlando TRACON
07:53PM 28.8667 -80.8833 164° South 136 157 8,300  Descending Orlando TRACON
07:53PM 28.8500 -80.8667 139° Southeast 134 154 8,400 60 Climbing Orlando TRACON
07:54PM 28.8167 -80.8667 180° South 134 154 8,400  Level Orlando TRACON
07:55PM 28.7833 -80.8500 156° South 132 152 8,400  Level Orlando TRACON
07:56PM 28.7333 -80.8333 164° South 135 155 8,400  Level Orlando TRACON
07:57PM 28.7000 -80.8333 180° South 132 152 8,500 60 Climbing Orlando TRACON
07:58PM 28.6667 -80.8333 180° South 132 152 8,600  Climbing Orlando TRACON
07:59PM 28.6333 -80.8333 180° South 134 154 8,600  Level Orlando TRACON
08:00PM 28.6000 -80.8333 180° South 134 154 8,600  Level Orlando TRACON
08:01PM 28.5667 -80.8333 180° South 136 157 8,600  Level Orlando TRACON
08:02PM 28.5333 -80.8333 180° South 136 157 8,600 -60 Level Orlando TRACON
08:03PM 28.4833 -80.8167 164° South 137 158 8,500 -120 Descending Orlando TRACON
08:05PM 28.4333 -80.8167 180° South 138 159 8,400 -60 Descending Orlando TRACON
08:05PM 28.4167 -80.8167 180° South 137 158 8,400 -60 Level Orlando TRACON
08:07PM 28.3464 -80.8147 179° South 140 161 8,300 -60 Descending Miami Center
08:08PM 28.3089 -80.8089 172° South 140 161 8,300  Level Miami Center
08:09PM 28.2653 -80.8003 170° South 140 161 8,300  Level Miami Center
08:10PM 28.2300 -80.7942 171° South 140 161 8,300  Level Miami Center
08:11PM 28.1906 -80.7881 172° South 140 161 8,300  Level Miami Center
08:12PM 28.1572 -80.7869 178° South 140 161 8,400  Climbing Miami Center
08:13PM 28.1111 -80.7878 181° South 145 167 8,400  Level Miami Center
08:14PM 28.0736 -80.7911 184° South 145 167 8,400 -60 Level Miami Center
08:15PM 28.0358 -80.7992 191° South 145 167 8,300 -60 Descending Miami Center
08:16PM 28.0000 -80.8075 192° South 145 167 8,300  Level Miami Center
08:17PM 27.9603 -80.8153 190° South 145 167 8,300  Level Miami Center
08:18PM 27.9203 -80.8258 193° South 145 167 8,300  Level Miami Center
08:19PM 27.8847 -80.8269 182° South 145 167 8,300  Level Miami Center
08:20PM 27.8408 -80.8300 184° South 145 167 8,300 -60 Level Miami Center
08:21PM 27.8053 -80.8311 182° South 140 161 8,200 -60 Descending Miami Center
08:22PM 27.7658 -80.8297 178° South 140 161 8,200  Level Miami Center
08:23PM 27.7325 -80.8264 175° South 140 161 8,300  Climbing Miami Center
08:24PM 27.6947 -80.8272 181° South 140 161 8,300  Level Miami Center
08:25PM 27.6589 -80.8447 203° Southwest 140 161 8,300  Level Miami Center
08:26PM 27.6189 -80.8597 198° South 145 167 8,300  Level Miami Center
08:27PM 27.5850 -80.8775 205° Southwest 145 167 8,300  Level Miami Center
08:28PM 27.5531 -80.8928 203° Southwest 145 167 8,300  Level Miami Center
08:29PM 27.5172 -80.9100 203° Southwest 145 167 8,400  Climbing Miami Center
08:30PM 27.4833 -80.9300 208° Southwest 145 167 8,400  Level Miami Center
08:31PM 27.4492 -80.9522 210° Southwest 140 161 8,400 -60 Level Miami Center
08:32PM 27.4131 -80.9742 208° Southwest 140 161 8,300  Descending Miami Center
08:33PM 27.3769 -80.9939 206° Southwest 140 161 8,400  Climbing Miami Center
08:34PM 27.3431 -81.0139 208° Southwest 140 161 8,300 -120 Descending Miami Center
08:35PM 27.3069 -81.0311 203° Southwest 140 161 8,200 -60 Descending Miami Center
08:36PM 27.2711 -81.0439 198° South 140 161 8,200 -60 Level Miami Center
08:37PM 27.2375 -81.0592 202° Southwest 140 161 8,100 -180 Descending Miami Center
08:38PM 27.1947 -81.0856 209° Southwest 146 168 7,900 -240 Descending Miami Center
08:39PM 27.1567 -81.1053 205° Southwest 152 175 7,700 -300 Descending Miami Center
08:40PM 27.1186 -81.1247 204° Southwest 152 175 7,400 -240 Descending Miami Center
08:41PM 27.0825 -81.1422 203° Southwest 157 181 7,300 -240 Descending Miami Center
08:42PM 27.0444 -81.1617 204° Southwest 157 181 7,000 -300 Descending Miami Center
08:43PM 27.0042 -81.1836 206° Southwest 157 181 6,700 -360 Descending Miami Center
08:44PM 26.9639 -81.2006 201° Southwest 152 175 6,300 -420 Descending Miami Center
08:45PM 26.9236 -81.2200 203° Southwest 157 181 5,900 -420 Descending Miami Center
08:46PM 26.8814 -81.2347 197° South 157 181 5,500 -420 Descending Miami Center
08:47PM 26.8372 -81.2494 197° South 157 181 5,100 -420 Descending Miami Center
08:48PM 26.7950 -81.2642 197° South 157 181 4,700 -480 Descending Miami Center
08:49PM 26.7547 -81.2814 201° Southwest 157 181 4,200 -420 Descending Miami Center
08:50PM 26.7164 -81.3031 207° Southwest 157 181 3,900 -300 Descending Miami Center
08:51PM 26.6806 -81.3203 203° Southwest 157 181 3,600 -300 Descending Miami Center
08:53PM 26.6368 -81.3674 224° Southwest  Level FlightAware Approximate
09:00PM 26.4387 -81.5752 214° Southwest  Level FlightAware Approximate
09:01PM 26.4072 -81.5988 214° Southwest  Level FlightAware Approximate
09:02PM 26.3752 -81.6216 208° Southwest  Level FlightAware Approximate
09:03PM 26.3418 -81.6416 208° Southwest  Level FlightAware Approximate
09:04PM 26.3084 -81.6617 208° Southwest  Level FlightAware Approximate
09:05PM 26.2750 -81.6817 208° Southwest  Level FlightAware Approximate
09:06PM 26.2416 -81.7018 208° Southwest  Level FlightAware Approximate
09:07PM 26.2086 -81.7227 214° Southwest  Level FlightAware Approximate
09:08PM 26.1772 -81.7463 214° Southwest  Level FlightAware Approximate
09:09PM 26.1500 -81.7667 214° Southwest  Level FlightAware Approximate
09:10PM 26.1524 -81.7756 214° Southwest  Level Estimated
09:11PM 26.1524 -81.7756 214° Southwest  Level Estimated
09:12PM 26.1524 -81.7756 214° Southwest  Level Estimated
09:13PM 26.1524 -81.7756 214° Southwest  Level Estimated
09:14PM 26.1524 -81.7756 214° Southwest  Level Estimated
09:15PM 26.1524 -81.7756 214° Southwest  Level Estimated
09:16PM 26.1524 -81.7756 214° Southwest  Level Estimated
09:17PM 26.1524 -81.7756 214° Southwest  Level Estimated
09:18PM 26.1524 -81.7756 214° Southwest  Level Estimated
09:19PM 26.1524 -81.7756 214° Southwest  Level Estimated
09:20PM 26.1524 -81.7756 214° Southwest  Level Estimated